Time;durP1;ratioP1;P1;durP2;ratioP2;P2;SDS_P1;SDS_P2;PMS_P1;PMS_P2;Temp;Humidity;BMP_temperature;BMP_pressure;BME280_temperature;BME280_humidity;BME280_pressure;Samples;Min_cycle;Max_cycle;Signal;HPM_P1;HPM_P2
2021/07/15 00:01:24;;;;;;;1.95;1.08;;;;;;;;;;6993262;28;20044;-76
2021/07/15 00:04:44;;;;;;;3.70;1.10;;;;;;;;;;6991304;28;20410;-76
2021/07/15 00:08:07;;;;;;;1.92;1.00;;;;;;;;;;6996730;28;20079;-76
2021/07/15 00:11:27;;;;;;;5.07;1.45;;;;;;;;;;6990928;28;20398;-76
2021/07/15 00:14:49;;;;;;;4.22;1.40;;;;;;;;;;6997170;28;20565;-76
2021/07/15 00:18:11;;;;;;;2.70;1.30;;;;;;;;;;6993057;28;20051;-76
2021/07/15 00:21:31;;;;;;;4.68;1.25;;;;;;;;;;6997194;28;20049;-76
2021/07/15 00:24:52;;;;;;;2.90;1.00;;;;;;;;;;6996982;28;20047;-76
2021/07/15 00:28:14;;;;;;;1.75;1.20;;;;;;;;;;6997019;28;20048;-76
2021/07/15 00:31:34;;;;;;;3.70;1.10;;;;;;;;;;6995433;28;20509;-76
2021/07/15 00:34:56;;;;;;;2.10;1.10;;;;;;;;;;6996522;28;20084;-76
2021/07/15 00:38:16;;;;;;;1.63;1.17;;;;;;;;;;6995837;28;20052;-76
2021/07/15 00:41:36;;;;;;;4.22;1.00;;;;;;;;;;6996617;28;20178;-75
2021/07/15 00:44:57;;;;;;;6.85;1.33;;;;;;;;;;6988324;28;20041;-76
2021/07/15 00:48:18;;;;;;;2.45;1.00;;;;;;;;;;6995925;28;20102;-76
2021/07/15 00:51:38;;;;;;;1.40;0.88;;;;;;;;;;6996604;28;20051;-76
2021/07/15 00:54:59;;;;;;;0.98;0.88;;;;;;;;;;6996458;28;20040;-76
2021/07/15 00:58:19;;;;;;;2.85;1.10;;;;;;;;;;6977230;28;20056;-75
2021/07/15 01:01:40;;;;;;;1.80;0.90;;;;;;;;;;7010452;28;20097;-76
2021/07/15 01:05:14;;;;;;;3.67;1.30;;;;;;;;;;6996551;28;20498;-76
2021/07/15 01:08:35;;;;;;;2.08;0.90;;;;;;;;;;6992122;28;20049;-75
2021/07/15 01:12:14;;;;;;;6.07;1.35;;;;;;;;;;6993767;28;20051;-76
2021/07/15 01:16:15;;;;;;;2.35;1.08;;;;;;;;;;6996164;28;20494;-75
2021/07/15 01:19:55;;;;;;;2.78;1.10;;;;;;;;;;6983586;28;20068;-76
2021/07/15 01:23:37;;;;;;;1.65;0.82;;;;;;;;;;6992657;28;20091;-75
2021/07/15 01:27:26;;;;;;;3.30;1.00;;;;;;;;;;6999648;22;20063;-76
2021/07/15 01:30:49;;;;;;;3.25;1.33;;;;;;;;;;6967963;28;20059;-75
2021/07/15 01:34:13;;;;;;;1.92;0.75;;;;;;;;;;6949117;28;20053;-75
2021/07/15 01:37:34;;;;;;;3.60;0.90;;;;;;;;;;6967412;28;20414;-75
2021/07/15 01:41:25;;;;;;;1.00;0.70;;;;;;;;;;6967866;28;20533;-75
2021/07/15 01:44:46;;;;;;;1.65;1.00;;;;;;;;;;6948153;28;20049;-76
2021/07/15 01:48:07;;;;;;;3.10;1.00;;;;;;;;;;6968110;28;20051;-76
2021/07/15 01:51:27;;;;;;;2.50;1.10;;;;;;;;;;6949059;28;20041;-76
2021/07/15 01:54:50;;;;;;;1.73;1.08;;;;;;;;;;6968048;28;20521;-76
2021/07/15 01:58:11;;;;;;;1.98;1.00;;;;;;;;;;6967559;28;20053;-76
2021/07/15 02:01:32;;;;;;;1.42;1.02;;;;;;;;;;6951701;28;20382;-76
2021/07/15 02:04:56;;;;;;;2.47;0.80;;;;;;;;;;6972505;28;20052;-76
2021/07/15 02:08:17;;;;;;;1.60;1.00;;;;;;;;;;6953541;28;20418;-75
2021/07/15 02:11:40;;;;;;;2.22;1.23;;;;;;;;;;6954229;28;20371;-76
2021/07/15 02:15:00;;;;;;;2.88;1.00;;;;;;;;;;6972186;28;20045;-76
2021/07/15 02:18:22;;;;;;;2.17;1.10;;;;;;;;;;6953753;28;20183;-76
2021/07/15 02:21:43;;;;;;;4.47;1.17;;;;;;;;;;6971891;28;20043;-76
2021/07/15 02:25:05;;;;;;;2.45;1.10;;;;;;;;;;6953444;28;20055;-76
2021/07/15 02:28:27;;;;;;;2.03;0.98;;;;;;;;;;6954097;28;20052;-76
2021/07/15 02:32:00;;;;;;;2.85;1.10;;;;;;;;;;6972027;28;20155;-76
2021/07/15 02:35:21;;;;;;;2.92;1.10;;;;;;;;;;6972505;28;20095;-76
2021/07/15 02:38:43;;;;;;;2.08;1.33;;;;;;;;;;6971921;28;20095;-76
2021/07/15 02:42:04;;;;;;;3.72;1.35;;;;;;;;;;6955080;28;20049;-76
2021/07/15 02:45:24;;;;;;;4.75;0.90;;;;;;;;;;6937400;28;20052;-77
2021/07/15 02:48:44;;;;;;;3.72;0.93;;;;;;;;;;6971664;28;20131;-76
2021/07/15 02:52:06;;;;;;;4.38;1.20;;;;;;;;;;6971589;28;20060;-76
2021/07/15 02:55:27;;;;;;;4.00;1.25;;;;;;;;;;6971101;28;20052;-75
2021/07/15 02:59:00;;;;;;;4.00;1.55;;;;;;;;;;6970045;28;20080;-76
2021/07/15 03:02:25;;;;;;;2.03;1.23;;;;;;;;;;6951715;28;20052;-75
2021/07/15 03:06:08;;;;;;;2.92;1.35;;;;;;;;;;6962829;28;20556;-76
2021/07/15 03:09:30;;;;;;;2.22;1.10;;;;;;;;;;6937585;28;20045;-76
2021/07/15 03:12:51;;;;;;;3.33;1.33;;;;;;;;;;6970886;28;20080;-76
2021/07/15 03:16:13;;;;;;;5.53;1.42;;;;;;;;;;6952550;28;20053;-76
2021/07/15 03:19:34;;;;;;;3.30;1.30;;;;;;;;;;6952740;28;20064;-76
2021/07/15 03:22:57;;;;;;;2.55;1.40;;;;;;;;;;6951985;28;20069;-75
2021/07/15 03:26:18;;;;;;;4.68;1.27;;;;;;;;;;6953375;28;20053;-75
2021/07/15 03:29:38;;;;;;;1.67;1.15;;;;;;;;;;6952548;28;20091;-76
2021/07/15 03:33:00;;;;;;;2.72;0.90;;;;;;;;;;6970370;28;20552;-77
2021/07/15 03:36:21;;;;;;;3.90;1.48;;;;;;;;;;6950586;28;20045;-76
2021/07/15 03:39:45;;;;;;;3.10;1.33;;;;;;;;;;6952630;28;20056;-76
2021/07/15 03:43:07;;;;;;;2.45;1.00;;;;;;;;;;6953019;28;20072;-76
2021/07/15 03:46:28;;;;;;;3.70;1.55;;;;;;;;;;6952678;28;20049;-76
2021/07/15 03:49:49;;;;;;;1.83;1.15;;;;;;;;;;6969906;28;20059;-76
2021/07/15 03:53:09;;;;;;;1.73;1.20;;;;;;;;;;6970314;28;20049;-76
2021/07/15 03:56:30;;;;;;;2.22;1.45;;;;;;;;;;6951311;28;20041;-76
2021/07/15 03:59:52;;;;;;;2.63;1.17;;;;;;;;;;6952438;28;20049;-76
2021/07/15 04:03:20;;;;;;;3.03;1.10;;;;;;;;;;6952195;28;20045;-76
2021/07/15 04:06:41;;;;;;;3.15;1.52;;;;;;;;;;6950647;28;20505;-76
2021/07/15 04:10:03;;;;;;;3.25;1.27;;;;;;;;;;6951881;28;20113;-76
2021/07/15 04:13:25;;;;;;;1.65;1.23;;;;;;;;;;6970055;28;20135;-76
2021/07/15 04:17:06;;;;;;;4.55;1.33;;;;;;;;;;6951037;28;20502;-76
2021/07/15 04:20:27;;;;;;;2.17;1.17;;;;;;;;;;6950594;28;20136;-77
2021/07/15 04:23:48;;;;;;;4.47;1.15;;;;;;;;;;6949985;28;20045;-76
2021/07/15 04:27:09;;;;;;;4.38;1.70;;;;;;;;;;6949505;28;20186;-76
2021/07/15 04:30:30;;;;;;;3.47;1.30;;;;;;;;;;6951737;28;20048;-76
2021/07/15 04:33:50;;;;;;;3.33;1.35;;;;;;;;;;6969487;28;20162;-77
2021/07/15 04:37:11;;;;;;;2.50;1.08;;;;;;;;;;6951489;28;20438;-76
2021/07/15 04:40:32;;;;;;;3.17;1.20;;;;;;;;;;6954573;28;20049;-76
2021/07/15 04:43:55;;;;;;;2.85;1.48;;;;;;;;;;6978971;28;20201;-77
2021/07/15 04:47:19;;;;;;;4.68;1.48;;;;;;;;;;6969119;28;20041;-76
2021/07/15 04:50:40;;;;;;;2.25;1.10;;;;;;;;;;6969259;28;20045;-76
2021/07/15 04:54:00;;;;;;;8.27;1.27;;;;;;;;;;6949358;28;20052;-77
2021/07/15 04:57:21;;;;;;;4.15;1.40;;;;;;;;;;6951364;28;20360;-77
2021/07/15 05:00:41;;;;;;;2.65;1.20;;;;;;;;;;6949353;28;20688;-77
2021/07/15 05:04:02;;;;;;;3.92;1.25;;;;;;;;;;6969675;28;20471;-77
2021/07/15 05:07:22;;;;;;;2.97;1.35;;;;;;;;;;6970061;28;20048;-78
2021/07/15 05:10:43;;;;;;;6.03;1.20;;;;;;;;;;6969765;28;20092;-75
2021/07/15 05:14:04;;;;;;;2.97;1.13;;;;;;;;;;6961368;28;20052;-75
2021/07/15 05:17:24;;;;;;;2.30;1.02;;;;;;;;;;6966780;28;20405;-75
2021/07/15 05:20:45;;;;;;;5.18;1.23;;;;;;;;;;6969934;28;20052;-75
2021/07/15 05:24:05;;;;;;;7.38;1.60;;;;;;;;;;6969869;28;20048;-75
2021/07/15 05:27:26;;;;;;;3.70;1.40;;;;;;;;;;6977060;28;20430;-76
2021/07/15 05:30:46;;;;;;;6.55;1.40;;;;;;;;;;6976203;28;20040;-76
2021/07/15 05:34:07;;;;;;;6.22;1.50;;;;;;;;;;6982261;28;20477;-75
2021/07/15 05:37:27;;;;;;;8.73;2.63;;;;;;;;;;6990777;28;20482;-76
2021/07/15 05:40:48;;;;;;;6.82;2.80;;;;;;;;;;6991074;28;20382;-76
2021/07/15 05:44:09;;;;;;;8.07;2.80;;;;;;;;;;6981004;28;20044;-76
2021/07/15 05:47:29;;;;;;;6.63;5.60;;;;;;;;;;6993949;28;20079;-75
2021/07/15 05:50:50;;;;;;;5.18;4.78;;;;;;;;;;6986222;28;20064;-76
2021/07/15 05:54:10;;;;;;;5.43;4.93;;;;;;;;;;6992747;28;20506;-77
2021/07/15 05:57:33;;;;;;;5.70;5.20;;;;;;;;;;6985793;28;20474;-77
2021/07/15 06:00:53;;;;;;;8.43;4.78;;;;;;;;;;6986778;28;20367;-76
2021/07/15 06:04:13;;;;;;;21.23;5.93;;;;;;;;;;6993721;28;20478;-78
2021/07/15 06:07:36;;;;;;;6.57;4.85;;;;;;;;;;6972625;28;20045;-78
2021/07/15 06:10:57;;;;;;;9.38;5.43;;;;;;;;;;6972019;28;20044;-78
2021/07/15 06:14:17;;;;;;;7.15;4.97;;;;;;;;;;6968012;28;20099;-79
2021/07/15 06:17:37;;;;;;;5.50;5.00;;;;;;;;;;6971535;28;20052;-79
2021/07/15 06:20:58;;;;;;;6.35;4.88;;;;;;;;;;6973301;28;20041;-79
2021/07/15 06:24:18;;;;;;;5.45;5.00;;;;;;;;;;6974912;28;20041;-79
2021/07/15 06:27:40;;;;;;;9.13;5.05;;;;;;;;;;6975122;28;20053;-79
2021/07/15 06:31:00;;;;;;;11.95;5.07;;;;;;;;;;6974964;28;20054;-80
2021/07/15 06:34:20;;;;;;;5.68;5.15;;;;;;;;;;6975574;28;20146;-80
2021/07/15 06:37:41;;;;;;;6.78;5.10;;;;;;;;;;6974687;28;20041;-81
2021/07/15 06:41:05;;;;;;;6.18;5.32;;;;;;;;;;6975391;28;20052;-81
2021/07/15 06:44:26;;;;;;;9.45;6.95;;;;;;;;;;6974642;28;20049;-81
2021/07/15 06:47:46;;;;;;;6.30;5.30;;;;;;;;;;6972470;28;20130;-81
2021/07/15 06:51:07;;;;;;;5.68;5.15;;;;;;;;;;6974553;28;20052;-81
2021/07/15 06:54:27;;;;;;;5.68;5.18;;;;;;;;;;6974893;28;20110;-80
2021/07/15 06:57:48;;;;;;;6.57;5.95;;;;;;;;;;6974532;28;20083;-81
2021/07/15 07:01:09;;;;;;;8.15;6.03;;;;;;;;;;6974561;28;20045;-80
2021/07/15 07:04:29;;;;;;;6.28;5.68;;;;;;;;;;6974480;28;20493;-79
2021/07/15 07:07:49;;;;;;;6.72;5.72;;;;;;;;;;6970978;28;20391;-79
2021/07/15 07:11:10;;;;;;;10.40;5.82;;;;;;;;;;6971224;28;20041;-79
2021/07/15 07:14:30;;;;;;;6.90;5.50;;;;;;;;;;6971401;28;20092;-79
2021/07/15 07:17:51;;;;;;;6.57;5.55;;;;;;;;;;6971148;28;20399;-79
2021/07/15 07:21:12;;;;;;;14.32;8.82;;;;;;;;;;6970422;28;20132;-79
2021/07/15 07:24:32;;;;;;;8.65;3.00;;;;;;;;;;6970969;28;20152;-80
2021/07/15 07:27:52;;;;;;;11.20;3.08;;;;;;;;;;6969981;28;20064;-80
2021/07/15 07:31:13;;;;;;;9.90;3.80;;;;;;;;;;6970779;28;20052;-79
2021/07/15 07:34:34;;;;;;;6.60;2.55;;;;;;;;;;6970294;28;20483;-79
2021/07/15 07:37:56;;;;;;;4.07;1.92;;;;;;;;;;6970446;28;20071;-79
2021/07/15 07:41:16;;;;;;;9.68;1.92;;;;;;;;;;6952042;28;20053;-79
2021/07/15 07:44:37;;;;;;;6.15;1.88;;;;;;;;;;6951641;28;20052;-80
2021/07/15 07:47:57;;;;;;;5.07;1.88;;;;;;;;;;6970042;28;20041;-80
2021/07/15 07:51:18;;;;;;;5.97;2.22;;;;;;;;;;6970387;28;20090;-80
2021/07/15 07:54:38;;;;;;;5.13;1.77;;;;;;;;;;6969936;28;20045;-80
2021/07/15 07:58:01;;;;;;;5.03;1.50;;;;;;;;;;6968069;28;20514;-80
2021/07/15 08:01:21;;;;;;;2.58;1.23;;;;;;;;;;6968154;28;20080;-80
2021/07/15 08:04:42;;;;;;;3.42;1.52;;;;;;;;;;6970062;28;20041;-80
2021/07/15 08:08:02;;;;;;;3.95;1.83;;;;;;;;;;6969879;28;20141;-79
2021/07/15 08:11:22;;;;;;;4.95;1.48;;;;;;;;;;6958770;28;20049;-80
2021/07/15 08:14:44;;;;;;;13.63;2.00;;;;;;;;;;6969681;28;20064;-78
2021/07/15 08:18:05;;;;;;;7.78;1.73;;;;;;;;;;6968845;28;20449;-79
2021/07/15 08:21:25;;;;;;;4.25;1.60;;;;;;;;;;6969429;28;20495;-79
2021/07/15 08:24:46;;;;;;;3.08;1.55;;;;;;;;;;6969462;28;20045;-80
2021/07/15 08:28:06;;;;;;;4.85;1.75;;;;;;;;;;6970908;28;20405;-79
2021/07/15 08:31:26;;;;;;;3.67;1.30;;;;;;;;;;6971507;28;20121;-79
2021/07/15 08:34:47;;;;;;;5.63;1.60;;;;;;;;;;6971593;28;20076;-79
2021/07/15 08:38:09;;;;;;;4.00;1.50;;;;;;;;;;6970193;28;20041;-80
2021/07/15 08:41:30;;;;;;;8.73;2.58;;;;;;;;;;6969875;28;20126;-79
2021/07/15 08:44:52;;;;;;;7.20;3.28;;;;;;;;;;6969210;28;20470;-78
2021/07/15 08:48:13;;;;;;;5.07;2.55;;;;;;;;;;6969676;28;20099;-79
2021/07/15 08:51:34;;;;;;;9.50;3.25;;;;;;;;;;6951543;28;20049;-79
2021/07/15 08:54:59;;;;;;;10.35;3.75;;;;;;;;;;6968917;28;20159;-79
2021/07/15 08:58:20;;;;;;;8.65;3.20;;;;;;;;;;6968831;28;20266;-80
2021/07/15 09:01:45;;;;;;;13.50;3.85;;;;;;;;;;6969003;28;20059;-80
2021/07/15 09:05:08;;;;;;;14.57;3.58;;;;;;;;;;6968500;28;20073;-80
2021/07/15 09:08:32;;;;;;;18.92;3.85;;;;;;;;;;6968185;28;20037;-80
2021/07/15 09:11:52;;;;;;;14.60;3.83;;;;;;;;;;6966619;28;20053;-80
2021/07/15 09:15:16;;;;;;;16.73;4.18;;;;;;;;;;6967918;28;20049;-80
2021/07/15 09:19:18;;;;;;;15.60;3.53;;;;;;;;;;6966261;28;20080;-80
2021/07/15 09:23:06;;;;;;;11.00;3.35;;;;;;;;;;6964447;28;20106;-80
2021/07/15 09:26:31;;;;;;;14.20;3.22;;;;;;;;;;6968032;28;20502;-80
2021/07/15 09:30:06;;;;;;;10.02;3.28;;;;;;;;;;6967991;28;20107;-81
2021/07/15 09:33:27;;;;;;;11.25;2.83;;;;;;;;;;6967958;28;20083;-78
2021/07/15 09:36:48;;;;;;;7.80;2.60;;;;;;;;;;6950525;28;20057;-81
2021/07/15 09:40:09;;;;;;;15.63;2.83;;;;;;;;;;6967829;28;20057;-80
2021/07/15 09:43:39;;;;;;;7.95;2.30;;;;;;;;;;6968412;28;20045;-81
2021/07/15 09:47:00;;;;;;;8.45;1.70;;;;;;;;;;6968453;28;20049;-81
2021/07/15 09:50:20;;;;;;;6.05;2.03;;;;;;;;;;6968660;28;20083;-81
2021/07/15 09:53:41;;;;;;;7.07;1.97;;;;;;;;;;6968157;28;20098;-81
2021/07/15 09:57:01;;;;;;;4.72;1.90;;;;;;;;;;6968457;28;20477;-79
2021/07/15 10:00:31;;;;;;;7.55;2.15;;;;;;;;;;6950482;28;20087;-80
2021/07/15 10:03:56;;;;;;;7.93;1.90;;;;;;;;;;6968575;28;20053;-80
2021/07/15 10:07:23;;;;;;;5.43;1.92;;;;;;;;;;6968110;28;20092;-80
2021/07/15 10:10:43;;;;;;;8.75;1.83;;;;;;;;;;6950156;28;20060;-78
2021/07/15 10:14:06;;;;;;;6.00;2.20;;;;;;;;;;6968039;28;20142;-78
2021/07/15 10:17:46;;;;;;;12.98;2.17;;;;;;;;;;6968020;28;20069;-79
2021/07/15 10:21:08;;;;;;;6.53;1.83;;;;;;;;;;6969032;28;20044;-78
2021/07/15 10:24:29;;;;;;;5.38;1.60;;;;;;;;;;6972482;28;20048;-79
2021/07/15 10:27:49;;;;;;;12.18;1.65;;;;;;;;;;6972972;28;20124;-80
2021/07/15 10:31:10;;;;;;;8.48;2.25;;;;;;;;;;6964887;28;20052;-78
2021/07/15 10:34:32;;;;;;;9.52;1.92;;;;;;;;;;6974374;28;20045;-79
2021/07/15 10:37:55;;;;;;;2.35;1.40;;;;;;;;;;6952795;28;20140;-79
2021/07/15 10:41:16;;;;;;;5.93;1.65;;;;;;;;;;6971993;28;20064;-79
2021/07/15 10:44:37;;;;;;;4.97;1.70;;;;;;;;;;6953622;28;20041;-79
2021/07/15 10:47:58;;;;;;;5.13;1.95;;;;;;;;;;6971018;28;20457;-79
2021/07/15 10:51:18;;;;;;;8.55;1.60;;;;;;;;;;6952968;28;20551;-78
2021/07/15 10:54:39;;;;;;;7.03;1.95;;;;;;;;;;6981549;28;20048;-79
2021/07/15 10:57:59;;;;;;;4.57;1.70;;;;;;;;;;6983436;28;20131;-79
2021/07/15 11:01:41;;;;;;;2.63;1.30;;;;;;;;;;6979598;28;20052;-79
2021/07/15 11:05:26;;;;;;;2.80;1.30;;;;;;;;;;6969440;28;20045;-79
2021/07/15 11:08:50;;;;;;;4.07;1.20;;;;;;;;;;6972515;28;20056;-79
2021/07/15 11:12:32;;;;;;;3.10;1.38;;;;;;;;;;6971195;28;20178;-79
2021/07/15 11:15:57;;;;;;;2.70;1.50;;;;;;;;;;6971636;28;20555;-79
2021/07/15 11:19:57;;;;;;;3.83;1.40;;;;;;;;;;6971228;28;20433;-78
2021/07/15 11:23:19;;;;;;;4.95;1.45;;;;;;;;;;6967043;28;20091;-78
2021/07/15 11:26:41;;;;;;;3.78;1.45;;;;;;;;;;6970821;28;20057;-78
2021/07/15 11:30:02;;;;;;;3.05;1.20;;;;;;;;;;6970828;28;20041;-78
2021/07/15 11:33:30;;;;;;;5.00;1.48;;;;;;;;;;6986643;28;20048;-78
2021/07/15 11:36:51;;;;;;;3.80;1.63;;;;;;;;;;6970224;28;20044;-78
2021/07/15 11:40:36;;;;;;;7.57;1.80;;;;;;;;;;6969345;28;20047;-78
2021/07/15 11:43:57;;;;;;;4.15;1.20;;;;;;;;;;6970394;28;20061;-78
2021/07/15 11:47:42;;;;;;;7.97;1.48;;;;;;;;;;6969861;28;20049;-78
2021/07/15 11:51:21;;;;;;;9.07;1.88;;;;;;;;;;6969009;28;20069;-78
2021/07/15 11:54:44;;;;;;;;;;;;;;;;;;6969965;28;20053;-78
2021/07/15 11:58:05;;;;;;;6.40;1.48;;;;;;;;;;6970121;28;19924;-78
2021/07/15 12:01:33;;;;;;;11.80;2.05;;;;;;;;;;6952150;28;20064;-78
2021/07/15 12:05:11;;;;;;;3.50;1.42;;;;;;;;;;6970156;28;20045;-78
2021/07/15 12:08:36;;;;;;;6.95;1.70;;;;;;;;;;6968803;28;20044;-79
2021/07/15 12:11:58;;;;;;;4.68;1.70;;;;;;;;;;6970323;28;20056;-79
2021/07/15 12:15:23;;;;;;;4.82;2.00;;;;;;;;;;6951926;28;20102;-77
2021/07/15 12:18:43;;;;;;;7.57;1.88;;;;;;;;;;6971374;28;20065;-77
2021/07/15 12:22:04;;;;;;;4.22;1.88;;;;;;;;;;6971179;28;21109;-77
2021/07/15 12:25:24;;;;;;;5.38;1.70;;;;;;;;;;6967561;28;20076;-77
2021/07/15 12:28:46;;;;;;;9.23;1.50;;;;;;;;;;6983096;28;20413;-77
2021/07/15 12:32:07;;;;;;;6.22;1.75;;;;;;;;;;6986926;28;20458;-77
2021/07/15 12:35:31;;;;;;;6.93;1.58;;;;;;;;;;6982226;28;20474;-78
2021/07/15 12:38:55;;;;;;;9.38;1.98;;;;;;;;;;6982415;28;20062;-76
2021/07/15 12:42:22;;;;;;;6.72;1.80;;;;;;;;;;6971010;28;20063;-78
2021/07/15 12:45:47;;;;;;;4.00;1.50;;;;;;;;;;6983092;28;20496;-78
2021/07/15 12:49:27;;;;;;;5.38;1.58;;;;;;;;;;6975236;28;20140;-77
2021/07/15 12:52:47;;;;;;;5.65;1.77;;;;;;;;;;6989183;28;20048;-77
2021/07/15 12:56:10;;;;;;;7.28;1.80;;;;;;;;;;6990624;28;20053;-77
2021/07/15 12:59:31;;;;;;;4.47;1.55;;;;;;;;;;6991299;28;20079;-77
2021/07/15 13:02:57;;;;;;;8.45;1.77;;;;;;;;;;6990906;28;20040;-77
2021/07/15 13:06:28;;;;;;;5.97;1.75;;;;;;;;;;6981182;28;20049;-77
2021/07/15 13:10:04;;;;;;;8.23;1.67;;;;;;;;;;6983650;28;20076;-77
2021/07/15 13:17:03;;;;;;;;;;;;;;;;;;6954488;28;20048;-77
2021/07/15 13:20:24;;;;;;;3.15;1.48;;;;;;;;;;6974108;28;19932;-77
2021/07/15 13:23:58;;;;;;;3.83;1.42;;;;;;;;;;6978377;28;20047;-77
2021/07/15 13:27:20;;;;;;;3.10;1.42;;;;;;;;;;7048652;22;20060;-76
2021/07/15 13:30:42;;;;;;;2.38;1.30;;;;;;;;;;6995886;28;20129;-77
2021/07/15 13:34:06;;;;;;;5.03;1.55;;;;;;;;;;6996189;28;20056;-76
2021/07/15 13:37:32;;;;;;;3.80;1.50;;;;;;;;;;6995689;28;20045;-75
2021/07/15 13:40:53;;;;;;;3.25;1.48;;;;;;;;;;6995751;28;20444;-76
2021/07/15 13:44:14;;;;;;;3.58;1.58;;;;;;;;;;6996711;28;20548;-77
2021/07/15 13:47:42;;;;;;;3.88;1.40;;;;;;;;;;6997612;28;20044;-77
2021/07/15 13:51:04;;;;;;;3.22;1.50;;;;;;;;;;6997105;28;20052;-75
2021/07/15 13:54:25;;;;;;;5.63;1.73;;;;;;;;;;6996768;28;20075;-77
2021/07/15 13:57:51;;;;;;;2.90;1.52;;;;;;;;;;7001982;28;20045;-77
2021/07/15 14:01:24;;;;;;;3.78;1.35;;;;;;;;;;7002077;28;20538;-77
2021/07/15 14:04:46;;;;;;;4.18;1.33;;;;;;;;;;7001699;28;20406;-76
2021/07/15 14:08:08;;;;;;;1.60;1.17;;;;;;;;;;7001967;28;20052;-76
2021/07/15 14:11:29;;;;;;;4.93;1.25;;;;;;;;;;7001895;28;20048;-76
2021/07/15 14:14:52;;;;;;;4.88;1.38;;;;;;;;;;6999248;28;20474;-76
2021/07/15 14:18:14;;;;;;;2.42;1.08;;;;;;;;;;7001491;28;20044;-76
2021/07/15 14:21:35;;;;;;;3.50;1.38;;;;;;;;;;6998766;28;20390;-77
2021/07/15 14:24:55;;;;;;;3.25;1.35;;;;;;;;;;7001909;28;20501;-76
2021/07/15 14:28:17;;;;;;;2.35;1.00;;;;;;;;;;6983656;28;20064;-77
2021/07/15 14:31:39;;;;;;;3.15;1.27;;;;;;;;;;7001418;28;20052;-76
2021/07/15 14:35:00;;;;;;;5.38;1.30;;;;;;;;;;6998055;28;20552;-76
2021/07/15 14:38:20;;;;;;;2.13;1.25;;;;;;;;;;7001125;28;20123;-76
2021/07/15 14:41:41;;;;;;;1.92;1.23;;;;;;;;;;7001352;28;20044;-76
2021/07/15 14:45:01;;;;;;;2.25;1.25;;;;;;;;;;7001847;28;20095;-76
2021/07/15 14:48:22;;;;;;;2.97;1.27;;;;;;;;;;7000929;28;20053;-76
2021/07/15 14:51:42;;;;;;;5.57;1.70;;;;;;;;;;7000793;28;20049;-75
2021/07/15 14:55:05;;;;;;;2.45;1.20;;;;;;;;;;7001002;28;20402;-76
2021/07/15 14:58:25;;;;;;;3.70;1.48;;;;;;;;;;7000970;28;20060;-76
2021/07/15 15:01:46;;;;;;;1.95;0.98;;;;;;;;;;7000794;28;20044;-75
2021/07/15 15:05:08;;;;;;;1.77;1.17;;;;;;;;;;7000564;28;20052;-75
2021/07/15 15:08:29;;;;;;;2.17;1.30;;;;;;;;;;6982552;28;20051;-76
2021/07/15 15:11:49;;;;;;;1.55;1.17;;;;;;;;;;7000681;28;20044;-75
2021/07/15 15:15:10;;;;;;;1.80;1.10;;;;;;;;;;7000959;28;20044;-76
2021/07/15 15:18:30;;;;;;;3.25;1.10;;;;;;;;;;7000712;28;20049;-76
2021/07/15 15:21:51;;;;;;;1.40;0.90;;;;;;;;;;7001059;28;20162;-76
2021/07/15 15:25:13;;;;;;;2.63;1.17;;;;;;;;;;6999841;28;20093;-76
2021/07/15 15:28:33;;;;;;;1.33;1.10;;;;;;;;;;6998984;28;20049;-76
2021/07/15 15:31:55;;;;;;;1.88;0.90;;;;;;;;;;6998255;28;20089;-77
2021/07/15 15:35:16;;;;;;;1.15;0.85;;;;;;;;;;6998924;28;20053;-77
2021/07/15 15:38:42;;;;;;;2.45;0.98;;;;;;;;;;6998812;28;20114;-77
2021/07/15 15:42:02;;;;;;;1.83;1.10;;;;;;;;;;6998729;28;20047;-77
2021/07/15 15:45:23;;;;;;;4.70;1.13;;;;;;;;;;6998618;28;20044;-77
2021/07/15 15:48:43;;;;;;;2.08;1.20;;;;;;;;;;6998330;28;20071;-77
2021/07/15 15:52:05;;;;;;;2.35;0.95;;;;;;;;;;6999297;28;20490;-77
2021/07/15 15:55:26;;;;;;;1.38;0.93;;;;;;;;;;6999947;28;20095;-78
2021/07/15 15:58:46;;;;;;;2.28;1.00;;;;;;;;;;6998047;28;20048;-78
2021/07/15 16:02:07;;;;;;;1.73;1.30;;;;;;;;;;6998491;28;20102;-77
2021/07/15 16:05:28;;;;;;;1.92;0.95;;;;;;;;;;6997399;28;20040;-78
2021/07/15 16:08:48;;;;;;;1.15;0.85;;;;;;;;;;6998342;28;20504;-79
2021/07/15 16:12:08;;;;;;;2.22;0.98;;;;;;;;;;6997583;28;20410;-78
2021/07/15 16:15:29;;;;;;;4.55;1.10;;;;;;;;;;6997922;28;20516;-77
2021/07/15 16:18:49;;;;;;;0.70;0.70;;;;;;;;;;6996743;28;20130;-78
2021/07/15 16:22:10;;;;;;;1.67;0.90;;;;;;;;;;6997634;28;20048;-77
2021/07/15 16:25:31;;;;;;;3.38;0.95;;;;;;;;;;6998166;28;20048;-79
2021/07/15 16:28:51;;;;;;;0.98;0.90;;;;;;;;;;6998118;28;20106;-78
2021/07/15 16:32:12;;;;;;;1.58;1.08;;;;;;;;;;6997657;28;20037;-78
2021/07/15 16:35:32;;;;;;;1.00;0.90;;;;;;;;;;6997412;28;20037;-78
2021/07/15 16:38:53;;;;;;;2.42;1.10;;;;;;;;;;6997276;28;20071;-78
2021/07/15 16:42:13;;;;;;;0.73;0.73;;;;;;;;;;6996697;28;20037;-78
2021/07/15 16:45:34;;;;;;;1.10;0.90;;;;;;;;;;6999227;28;20044;-78
2021/07/15 16:48:54;;;;;;;1.00;0.80;;;;;;;;;;6998959;28;20074;-79
2021/07/15 16:52:16;;;;;;;1.33;0.90;;;;;;;;;;6999445;28;20127;-78
2021/07/15 16:55:36;;;;;;;5.45;1.27;;;;;;;;;;6998852;28;20518;-79
2021/07/15 16:58:57;;;;;;;2.83;0.80;;;;;;;;;;6997549;28;20135;-79
2021/07/15 17:02:17;;;;;;;1.25;0.82;;;;;;;;;;6996948;28;20405;-79
2021/07/15 17:05:38;;;;;;;1.65;0.93;;;;;;;;;;6997565;28;20143;-79
2021/07/15 17:08:58;;;;;;;0.80;0.77;;;;;;;;;;6996429;28;20048;-80
2021/07/15 17:12:20;;;;;;;1.08;0.90;;;;;;;;;;6996653;28;20049;-80
2021/07/15 17:15:40;;;;;;;1.25;0.70;;;;;;;;;;6996812;28;20052;-78
2021/07/15 17:19:02;;;;;;;1.45;0.80;;;;;;;;;;6997143;28;20040;-79
2021/07/15 17:22:23;;;;;;;1.38;0.90;;;;;;;;;;6997695;28;20044;-79
2021/07/15 17:25:43;;;;;;;1.15;0.90;;;;;;;;;;6998424;28;20048;-79
2021/07/15 17:29:04;;;;;;;0.95;0.73;;;;;;;;;;6997934;28;20093;-79
2021/07/15 17:32:24;;;;;;;1.25;0.90;;;;;;;;;;6997310;28;20041;-78
2021/07/15 17:35:45;;;;;;;1.73;1.00;;;;;;;;;;6998092;28;20051;-79
2021/07/15 17:39:06;;;;;;;1.15;0.90;;;;;;;;;;6997324;28;20060;-77
2021/07/15 17:42:26;;;;;;;1.90;0.70;;;;;;;;;;6997518;28;20057;-79
2021/07/15 17:45:47;;;;;;;1.05;0.80;;;;;;;;;;6979698;28;20506;-78
2021/07/15 17:49:07;;;;;;;1.20;0.85;;;;;;;;;;6997462;28;20036;-80
2021/07/15 17:52:27;;;;;;;2.30;1.30;;;;;;;;;;6997345;28;20059;-80
2021/07/15 17:55:48;;;;;;;1.30;0.60;;;;;;;;;;6997289;28;20075;-79
2021/07/15 17:59:09;;;;;;;1.05;0.90;;;;;;;;;;6982647;28;20124;-79
2021/07/15 18:02:29;;;;;;;5.85;2.92;;;;;;;;;;6995960;28;20055;-81
2021/07/15 18:05:51;;;;;;;12.20;2.85;;;;;;;;;;6994416;28;20072;-80
2021/07/15 18:09:12;;;;;;;15.93;3.17;;;;;;;;;;6994707;28;20057;-80
2021/07/15 18:12:32;;;;;;;12.32;2.72;;;;;;;;;;6992262;28;20455;-80
2021/07/15 18:15:53;;;;;;;5.53;2.75;;;;;;;;;;6994881;28;20048;-80
2021/07/15 18:19:13;;;;;;;7.50;3.00;;;;;;;;;;6994730;28;20059;-80
2021/07/15 18:22:34;;;;;;;9.57;2.85;;;;;;;;;;6994947;28;20040;-80
2021/07/15 18:25:54;;;;;;;5.75;2.30;;;;;;;;;;6994338;28;20045;-80
2021/07/15 18:29:15;;;;;;;6.10;2.50;;;;;;;;;;6995082;28;20151;-80
2021/07/15 18:32:35;;;;;;;7.78;2.40;;;;;;;;;;6992988;28;20048;-79
2021/07/15 18:35:56;;;;;;;8.82;2.53;;;;;;;;;;6994427;28;20076;-77
2021/07/15 18:39:16;;;;;;;6.47;1.80;;;;;;;;;;6994726;28;20056;-77
2021/07/15 18:42:38;;;;;;;5.53;1.98;;;;;;;;;;6995920;28;20120;-77
2021/07/15 18:45:58;;;;;;;4.20;2.20;;;;;;;;;;6992810;28;20342;-77
2021/07/15 18:49:19;;;;;;;8.85;2.53;;;;;;;;;;6998720;28;20509;-77
2021/07/15 18:52:40;;;;;;;8.80;2.17;;;;;;;;;;6999186;28;20044;-78
2021/07/15 18:56:00;;;;;;;5.60;2.20;;;;;;;;;;6999021;28;20502;-77
2021/07/15 18:59:21;;;;;;;4.20;2.15;;;;;;;;;;6999329;28;20151;-77
2021/07/15 19:02:42;;;;;;;3.80;1.70;;;;;;;;;;6981006;28;20424;-77
2021/07/15 19:06:02;;;;;;;3.67;2.00;;;;;;;;;;6998839;28;20045;-77
2021/07/15 19:09:23;;;;;;;4.18;1.88;;;;;;;;;;6998994;28;20083;-77
2021/07/15 19:12:44;;;;;;;4.65;1.80;;;;;;;;;;6998953;28;20466;-78
2021/07/15 19:16:06;;;;;;;4.40;1.92;;;;;;;;;;6998627;28;20056;-77
2021/07/15 19:19:30;;;;;;;3.10;1.85;;;;;;;;;;6998634;28;20514;-77
2021/07/15 19:22:50;;;;;;;3.63;1.90;;;;;;;;;;6998530;28;20051;-77
2021/07/15 19:26:11;;;;;;;4.80;2.17;;;;;;;;;;6998570;28;20048;-77
2021/07/15 19:29:32;;;;;;;3.80;1.60;;;;;;;;;;6998300;28;20049;-77
2021/07/15 19:32:53;;;;;;;4.50;1.83;;;;;;;;;;6998273;28;21052;-77
2021/07/15 19:36:13;;;;;;;4.50;1.73;;;;;;;;;;6998216;28;20041;-77
2021/07/15 19:39:34;;;;;;;4.13;1.55;;;;;;;;;;6998483;28;20127;-78
2021/07/15 19:42:55;;;;;;;3.85;1.80;;;;;;;;;;6998083;28;20553;-77
2021/07/15 19:46:15;;;;;;;4.90;1.60;;;;;;;;;;6998087;28;20052;-77
2021/07/15 19:49:35;;;;;;;4.60;1.75;;;;;;;;;;6998038;28;20378;-77
2021/07/15 19:52:56;;;;;;;3.67;1.52;;;;;;;;;;6998155;28;20119;-77
2021/07/15 19:56:16;;;;;;;6.35;1.77;;;;;;;;;;6998099;28;20048;-77
2021/07/15 19:59:37;;;;;;;2.25;1.55;;;;;;;;;;6997527;28;20124;-77
2021/07/15 20:02:58;;;;;;;4.25;1.67;;;;;;;;;;6997763;28;20049;-77
2021/07/15 20:06:20;;;;;;;1.95;1.65;;;;;;;;;;6997708;28;20496;-77
2021/07/15 20:09:40;;;;;;;2.65;1.40;;;;;;;;;;6997539;28;20046;-77
2021/07/15 20:13:01;;;;;;;4.55;1.70;;;;;;;;;;6997857;28;20044;-77
2021/07/15 20:16:21;;;;;;;2.10;1.40;;;;;;;;;;6997931;28;20045;-77
2021/07/15 20:19:42;;;;;;;3.50;1.50;;;;;;;;;;6997339;28;20114;-77